sensor_id;sensor_type;location;lat;lon;timestamp;P1;durP1;ratioP1;P2;durP2;ratioP2
11839;SDS011;5979;50.800;4.904;2023-04-12T00:01:23;1.40;;;1.25;;
11839;SDS011;5979;50.800;4.904;2023-04-12T00:03:50;1.98;;;1.65;;
11839;SDS011;5979;50.800;4.904;2023-04-12T00:06:18;2.92;;;1.48;;
11839;SDS011;5979;50.800;4.904;2023-04-12T00:08:49;3.67;;;1.60;;
11839;SDS011;5979;50.800;4.904;2023-04-12T00:11:15;3.38;;;1.30;;
11839;SDS011;5979;50.800;4.904;2023-04-12T00:13:41;2.53;;;1.60;;
11839;SDS011;5979;50.800;4.904;2023-04-12T00:16:08;2.42;;;1.13;;
11839;SDS011;5979;50.800;4.904;2023-04-12T00:18:33;3.60;;;1.63;;
11839;SDS011;5979;50.800;4.904;2023-04-12T00:20:59;2.53;;;1.30;;
11839;SDS011;5979;50.800;4.904;2023-04-12T00:23:25;3.30;;;1.40;;
11839;SDS011;5979;50.800;4.904;2023-04-12T00:25:51;2.33;;;1.30;;
11839;SDS011;5979;50.800;4.904;2023-04-12T00:28:16;2.00;;;1.63;;
11839;SDS011;5979;50.800;4.904;2023-04-12T00:30:42;2.58;;;1.58;;
11839;SDS011;5979;50.800;4.904;2023-04-12T00:33:09;1.30;;;1.20;;
11839;SDS011;5979;50.800;4.904;2023-04-12T00:35:35;1.83;;;1.35;;
11839;SDS011;5979;50.800;4.904;2023-04-12T00:38:01;3.97;;;1.92;;
11839;SDS011;5979;50.800;4.904;2023-04-12T00:40:28;1.85;;;1.27;;
11839;SDS011;5979;50.800;4.904;2023-04-12T00:42:53;2.03;;;1.35;;
11839;SDS011;5979;50.800;4.904;2023-04-12T00:45:19;4.55;;;1.85;;
11839;SDS011;5979;50.800;4.904;2023-04-12T00:47:45;1.33;;;1.02;;
11839;SDS011;5979;50.800;4.904;2023-04-12T00:50:11;1.50;;;0.98;;
11839;SDS011;5979;50.800;4.904;2023-04-12T00:52:38;2.85;;;1.30;;
11839;SDS011;5979;50.800;4.904;2023-04-12T00:55:04;3.85;;;1.00;;
11839;SDS011;5979;50.800;4.904;2023-04-12T00:57:35;1.38;;;1.10;;
11839;SDS011;5979;50.800;4.904;2023-04-12T01:00:05;1.00;;;1.00;;
11839;SDS011;5979;50.800;4.904;2023-04-12T01:02:34;2.22;;;1.40;;
11839;SDS011;5979;50.800;4.904;2023-04-12T01:05:03;1.83;;;1.10;;
11839;SDS011;5979;50.800;4.904;2023-04-12T01:07:39;1.85;;;0.95;;
11839;SDS011;5979;50.800;4.904;2023-04-12T01:10:32;1.35;;;1.00;;
11839;SDS011;5979;50.800;4.904;2023-04-12T01:18:52;1.08;;;0.90;;
11839;SDS011;5979;50.800;4.904;2023-04-12T01:21:35;1.20;;;1.10;;
11839;SDS011;5979;50.800;4.904;2023-04-12T01:26:50;0.90;;;0.90;;
11839;SDS011;5979;50.800;4.904;2023-04-12T01:29:19;3.85;;;1.10;;
11839;SDS011;5979;50.800;4.904;2023-04-12T01:31:53;1.45;;;0.95;;
11839;SDS011;5979;50.800;4.904;2023-04-12T01:34:22;1.58;;;0.82;;
11839;SDS011;5979;50.800;4.904;2023-04-12T01:36:50;1.42;;;0.90;;
11839;SDS011;5979;50.800;4.904;2023-04-12T01:39:17;1.63;;;1.02;;
11839;SDS011;5979;50.800;4.904;2023-04-12T01:41:42;1.95;;;0.90;;
11839;SDS011;5979;50.800;4.904;2023-04-12T01:44:13;1.30;;;1.20;;
11839;SDS011;5979;50.800;4.904;2023-04-12T01:46:40;0.98;;;0.98;;
11839;SDS011;5979;50.800;4.904;2023-04-12T01:49:11;1.20;;;1.20;;
11839;SDS011;5979;50.800;4.904;2023-04-12T01:51:42;1.75;;;1.08;;
11839;SDS011;5979;50.800;4.904;2023-04-12T01:54:30;2.55;;;1.17;;
11839;SDS011;5979;50.800;4.904;2023-04-12T01:57:01;1.70;;;0.88;;
11839;SDS011;5979;50.800;4.904;2023-04-12T01:59:47;1.67;;;0.93;;
11839;SDS011;5979;50.800;4.904;2023-04-12T02:02:14;1.25;;;1.15;;
11839;SDS011;5979;50.800;4.904;2023-04-12T02:04:41;1.63;;;1.00;;
11839;SDS011;5979;50.800;4.904;2023-04-12T02:07:07;1.98;;;1.00;;
11839;SDS011;5979;50.800;4.904;2023-04-12T02:09:36;1.23;;;1.00;;
11839;SDS011;5979;50.800;4.904;2023-04-12T02:12:03;1.88;;;0.98;;
11839;SDS011;5979;50.800;4.904;2023-04-12T02:14:30;1.13;;;0.82;;
11839;SDS011;5979;50.800;4.904;2023-04-12T02:16:56;2.63;;;0.95;;
11839;SDS011;5979;50.800;4.904;2023-04-12T02:19:22;2.97;;;1.10;;
11839;SDS011;5979;50.800;4.904;2023-04-12T02:21:49;0.80;;;0.80;;
11839;SDS011;5979;50.800;4.904;2023-04-12T02:24:15;1.20;;;1.05;;
11839;SDS011;5979;50.800;4.904;2023-04-12T02:26:41;0.90;;;0.90;;
11839;SDS011;5979;50.800;4.904;2023-04-12T02:29:07;1.10;;;1.00;;
11839;SDS011;5979;50.800;4.904;2023-04-12T02:31:34;2.00;;;1.30;;
11839;SDS011;5979;50.800;4.904;2023-04-12T02:34:02;2.50;;;1.00;;
11839;SDS011;5979;50.800;4.904;2023-04-12T02:36:29;1.55;;;1.45;;
11839;SDS011;5979;50.800;4.904;2023-04-12T02:38:54;1.80;;;1.17;;
11839;SDS011;5979;50.800;4.904;2023-04-12T02:41:21;2.13;;;1.17;;
11839;SDS011;5979;50.800;4.904;2023-04-12T02:43:47;1.70;;;1.00;;
11839;SDS011;5979;50.800;4.904;2023-04-12T02:46:14;1.13;;;1.00;;
11839;SDS011;5979;50.800;4.904;2023-04-12T02:48:43;2.22;;;1.20;;
11839;SDS011;5979;50.800;4.904;2023-04-12T02:51:10;1.48;;;1.10;;
11839;SDS011;5979;50.800;4.904;2023-04-12T02:53:36;1.10;;;1.00;;
11839;SDS011;5979;50.800;4.904;2023-04-12T02:56:04;1.63;;;1.13;;
11839;SDS011;5979;50.800;4.904;2023-04-12T02:58:31;1.13;;;1.13;;
11839;SDS011;5979;50.800;4.904;2023-04-12T03:00:58;1.88;;;1.10;;
11839;SDS011;5979;50.800;4.904;2023-04-12T03:03:25;1.35;;;0.88;;
11839;SDS011;5979;50.800;4.904;2023-04-12T03:05:52;2.15;;;1.15;;
11839;SDS011;5979;50.800;4.904;2023-04-12T03:08:19;2.95;;;1.30;;
11839;SDS011;5979;50.800;4.904;2023-04-12T03:10:46;1.38;;;1.20;;
11839;SDS011;5979;50.800;4.904;2023-04-12T03:13:12;1.65;;;1.10;;
11839;SDS011;5979;50.800;4.904;2023-04-12T03:15:38;1.10;;;1.00;;
11839;SDS011;5979;50.800;4.904;2023-04-12T03:18:04;1.55;;;1.30;;
11839;SDS011;5979;50.800;4.904;2023-04-12T03:20:30;2.78;;;1.10;;
11839;SDS011;5979;50.800;4.904;2023-04-12T03:22:55;1.05;;;1.05;;
11839;SDS011;5979;50.800;4.904;2023-04-12T03:25:21;1.30;;;1.10;;
11839;SDS011;5979;50.800;4.904;2023-04-12T03:27:47;1.23;;;1.13;;
11839;SDS011;5979;50.800;4.904;2023-04-12T03:30:12;2.38;;;1.15;;
11839;SDS011;5979;50.800;4.904;2023-04-12T03:32:39;2.30;;;1.13;;
11839;SDS011;5979;50.800;4.904;2023-04-12T03:35:06;2.25;;;1.00;;
11839;SDS011;5979;50.800;4.904;2023-04-12T03:37:33;1.35;;;1.25;;
11839;SDS011;5979;50.800;4.904;2023-04-12T03:39:59;1.30;;;0.95;;
11839;SDS011;5979;50.800;4.904;2023-04-12T03:42:26;1.02;;;0.80;;
11839;SDS011;5979;50.800;4.904;2023-04-12T03:44:53;2.42;;;1.25;;
11839;SDS011;5979;50.800;4.904;2023-04-12T03:47:19;2.35;;;1.00;;
11839;SDS011;5979;50.800;4.904;2023-04-12T03:49:48;1.45;;;1.10;;
11839;SDS011;5979;50.800;4.904;2023-04-12T03:52:14;1.67;;;1.20;;
11839;SDS011;5979;50.800;4.904;2023-04-12T03:54:41;1.85;;;1.10;;
11839;SDS011;5979;50.800;4.904;2023-04-12T03:57:07;2.47;;;1.00;;
11839;SDS011;5979;50.800;4.904;2023-04-12T04:02:51;2.40;;;0.95;;
11839;SDS011;5979;50.800;4.904;2023-04-12T04:05:16;1.27;;;1.10;;
11839;SDS011;5979;50.800;4.904;2023-04-12T04:07:42;0.75;;;0.75;;
11839;SDS011;5979;50.800;4.904;2023-04-12T04:10:08;1.80;;;1.05;;
11839;SDS011;5979;50.800;4.904;2023-04-12T04:12:34;1.00;;;1.00;;
11839;SDS011;5979;50.800;4.904;2023-04-12T04:15:00;2.65;;;1.13;;
11839;SDS011;5979;50.800;4.904;2023-04-12T04:17:25;0.88;;;0.88;;
11839;SDS011;5979;50.800;4.904;2023-04-12T04:19:51;1.20;;;1.10;;
11839;SDS011;5979;50.800;4.904;2023-04-12T04:22:17;1.25;;;0.95;;
11839;SDS011;5979;50.800;4.904;2023-04-12T04:24:45;2.05;;;1.00;;
11839;SDS011;5979;50.800;4.904;2023-04-12T04:27:12;1.45;;;1.00;;
11839;SDS011;5979;50.800;4.904;2023-04-12T04:29:39;2.10;;;0.95;;
11839;SDS011;5979;50.800;4.904;2023-04-12T04:32:10;2.03;;;0.90;;
11839;SDS011;5979;50.800;4.904;2023-04-12T04:34:36;0.80;;;0.80;;
11839;SDS011;5979;50.800;4.904;2023-04-12T04:37:02;0.80;;;0.80;;
11839;SDS011;5979;50.800;4.904;2023-04-12T04:39:28;0.65;;;0.65;;
11839;SDS011;5979;50.800;4.904;2023-04-12T04:41:53;1.42;;;1.33;;
11839;SDS011;5979;50.800;4.904;2023-04-12T04:44:19;1.02;;;1.02;;
11839;SDS011;5979;50.800;4.904;2023-04-12T04:46:45;1.17;;;1.00;;
11839;SDS011;5979;50.800;4.904;2023-04-12T04:49:12;0.82;;;0.82;;
11839;SDS011;5979;50.800;4.904;2023-04-12T04:51:38;1.75;;;0.80;;
11839;SDS011;5979;50.800;4.904;2023-04-12T04:54:04;2.17;;;1.23;;
11839;SDS011;5979;50.800;4.904;2023-04-12T04:56:30;1.67;;;0.98;;
11839;SDS011;5979;50.800;4.904;2023-04-12T04:58:56;2.17;;;0.85;;
11839;SDS011;5979;50.800;4.904;2023-04-12T05:01:23;1.85;;;1.10;;
11839;SDS011;5979;50.800;4.904;2023-04-12T05:03:53;1.38;;;1.00;;
11839;SDS011;5979;50.800;4.904;2023-04-12T05:06:19;1.02;;;0.93;;
11839;SDS011;5979;50.800;4.904;2023-04-12T05:08:45;0.80;;;0.80;;
11839;SDS011;5979;50.800;4.904;2023-04-12T05:11:13;0.90;;;0.90;;
11839;SDS011;5979;50.800;4.904;2023-04-12T05:13:38;1.52;;;0.70;;
11839;SDS011;5979;50.800;4.904;2023-04-12T05:16:05;1.58;;;0.80;;
11839;SDS011;5979;50.800;4.904;2023-04-12T05:18:32;1.27;;;1.17;;
11839;SDS011;5979;50.800;4.904;2023-04-12T05:21:00;2.92;;;0.75;;
11839;SDS011;5979;50.800;4.904;2023-04-12T05:23:27;0.90;;;0.90;;
11839;SDS011;5979;50.800;4.904;2023-04-12T05:25:53;0.68;;;0.65;;
11839;SDS011;5979;50.800;4.904;2023-04-12T05:28:19;0.80;;;0.80;;
11839;SDS011;5979;50.800;4.904;2023-04-12T05:30:45;0.77;;;0.77;;
11839;SDS011;5979;50.800;4.904;2023-04-12T05:33:11;1.17;;;0.82;;
11839;SDS011;5979;50.800;4.904;2023-04-12T05:35:36;0.75;;;0.70;;
11839;SDS011;5979;50.800;4.904;2023-04-12T05:38:02;0.70;;;0.70;;
11839;SDS011;5979;50.800;4.904;2023-04-12T05:40:28;0.85;;;0.60;;
11839;SDS011;5979;50.800;4.904;2023-04-12T05:42:55;0.90;;;0.90;;
11839;SDS011;5979;50.800;4.904;2023-04-12T05:45:21;0.80;;;0.80;;
11839;SDS011;5979;50.800;4.904;2023-04-12T05:47:47;0.80;;;0.70;;
11839;SDS011;5979;50.800;4.904;2023-04-12T05:50:13;2.63;;;0.90;;
11839;SDS011;5979;50.800;4.904;2023-04-12T05:52:38;0.70;;;0.70;;
11839;SDS011;5979;50.800;4.904;2023-04-12T05:55:04;1.38;;;0.80;;
11839;SDS011;5979;50.800;4.904;2023-04-12T05:57:30;0.82;;;0.80;;
11839;SDS011;5979;50.800;4.904;2023-04-12T05:59:56;0.68;;;0.68;;
11839;SDS011;5979;50.800;4.904;2023-04-12T06:02:22;0.68;;;0.68;;
11839;SDS011;5979;50.800;4.904;2023-04-12T06:04:50;0.85;;;0.85;;
11839;SDS011;5979;50.800;4.904;2023-04-12T06:07:17;0.40;;;0.40;;
11839;SDS011;5979;50.800;4.904;2023-04-12T06:09:43;1.08;;;0.80;;
11839;SDS011;5979;50.800;4.904;2023-04-12T06:12:10;1.30;;;0.90;;
11839;SDS011;5979;50.800;4.904;2023-04-12T06:14:35;0.77;;;0.77;;
11839;SDS011;5979;50.800;4.904;2023-04-12T06:17:01;0.90;;;0.90;;
11839;SDS011;5979;50.800;4.904;2023-04-12T06:19:27;0.93;;;0.90;;
11839;SDS011;5979;50.800;4.904;2023-04-12T06:21:52;0.80;;;0.75;;
11839;SDS011;5979;50.800;4.904;2023-04-12T06:24:18;1.35;;;0.85;;
11839;SDS011;5979;50.800;4.904;2023-04-12T06:26:44;0.95;;;0.88;;
11839;SDS011;5979;50.800;4.904;2023-04-12T06:29:11;2.08;;;1.10;;
11839;SDS011;5979;50.800;4.904;2023-04-12T06:31:37;2.05;;;0.98;;
11839;SDS011;5979;50.800;4.904;2023-04-12T06:34:03;4.03;;;1.50;;
11839;SDS011;5979;50.800;4.904;2023-04-12T06:36:28;1.30;;;1.20;;
11839;SDS011;5979;50.800;4.904;2023-04-12T06:38:54;2.50;;;1.13;;
11839;SDS011;5979;50.800;4.904;2023-04-12T06:41:20;2.25;;;1.20;;
11839;SDS011;5979;50.800;4.904;2023-04-12T06:43:46;1.48;;;1.20;;
11839;SDS011;5979;50.800;4.904;2023-04-12T06:46:11;2.28;;;1.15;;
11839;SDS011;5979;50.800;4.904;2023-04-12T06:48:39;3.35;;;1.27;;
11839;SDS011;5979;50.800;4.904;2023-04-12T06:51:05;1.70;;;1.60;;
11839;SDS011;5979;50.800;4.904;2023-04-12T06:53:31;2.83;;;1.40;;
11839;SDS011;5979;50.800;4.904;2023-04-12T06:56:02;3.65;;;1.70;;
11839;SDS011;5979;50.800;4.904;2023-04-12T06:58:28;1.45;;;1.35;;
11839;SDS011;5979;50.800;4.904;2023-04-12T07:01:16;2.40;;;1.48;;
11839;SDS011;5979;50.800;4.904;2023-04-12T07:03:41;1.80;;;1.67;;
11839;SDS011;5979;50.800;4.904;2023-04-12T07:06:07;2.28;;;1.40;;
11839;SDS011;5979;50.800;4.904;2023-04-12T07:08:36;1.23;;;1.20;;
11839;SDS011;5979;50.800;4.904;2023-04-12T07:11:02;2.40;;;1.40;;
11839;SDS011;5979;50.800;4.904;2023-04-12T07:13:28;3.85;;;1.73;;
11839;SDS011;5979;50.800;4.904;2023-04-12T07:15:55;2.38;;;1.77;;
11839;SDS011;5979;50.800;4.904;2023-04-12T07:21:06;2.38;;;1.75;;
11839;SDS011;5979;50.800;4.904;2023-04-12T07:23:32;2.95;;;2.00;;
11839;SDS011;5979;50.800;4.904;2023-04-12T07:25:58;2.50;;;1.70;;
11839;SDS011;5979;50.800;4.904;2023-04-12T07:31:09;4.75;;;1.95;;
11839;SDS011;5979;50.800;4.904;2023-04-12T07:33:35;3.85;;;1.60;;
11839;SDS011;5979;50.800;4.904;2023-04-12T07:36:01;3.72;;;1.85;;
11839;SDS011;5979;50.800;4.904;2023-04-12T07:38:28;5.60;;;2.53;;
11839;SDS011;5979;50.800;4.904;2023-04-12T07:40:54;3.75;;;1.98;;
11839;SDS011;5979;50.800;4.904;2023-04-12T07:43:20;3.78;;;1.90;;
11839;SDS011;5979;50.800;4.904;2023-04-12T07:45:46;6.78;;;2.53;;
11839;SDS011;5979;50.800;4.904;2023-04-12T07:48:11;5.00;;;2.45;;
11839;SDS011;5979;50.800;4.904;2023-04-12T07:50:38;4.90;;;2.22;;
11839;SDS011;5979;50.800;4.904;2023-04-12T07:53:21;6.20;;;2.03;;
11839;SDS011;5979;50.800;4.904;2023-04-12T07:55:48;3.17;;;1.95;;
11839;SDS011;5979;50.800;4.904;2023-04-12T07:58:15;4.78;;;1.77;;
11839;SDS011;5979;50.800;4.904;2023-04-12T08:00:42;3.35;;;1.85;;
11839;SDS011;5979;50.800;4.904;2023-04-12T08:03:10;3.40;;;1.75;;
11839;SDS011;5979;50.800;4.904;2023-04-12T08:05:37;4.28;;;2.28;;
11839;SDS011;5979;50.800;4.904;2023-04-12T08:08:03;2.60;;;1.83;;
11839;SDS011;5979;50.800;4.904;2023-04-12T08:10:29;4.38;;;1.63;;
11839;SDS011;5979;50.800;4.904;2023-04-12T08:12:55;6.43;;;1.73;;
11839;SDS011;5979;50.800;4.904;2023-04-12T08:15:21;3.28;;;1.60;;
11839;SDS011;5979;50.800;4.904;2023-04-12T08:17:47;4.72;;;2.08;;
11839;SDS011;5979;50.800;4.904;2023-04-12T08:20:13;2.67;;;1.67;;
11839;SDS011;5979;50.800;4.904;2023-04-12T08:22:42;4.28;;;2.25;;
11839;SDS011;5979;50.800;4.904;2023-04-12T08:25:09;4.65;;;1.80;;
11839;SDS011;5979;50.800;4.904;2023-04-12T08:27:35;2.75;;;1.60;;
11839;SDS011;5979;50.800;4.904;2023-04-12T08:30:01;4.07;;;1.80;;
11839;SDS011;5979;50.800;4.904;2023-04-12T08:32:27;4.07;;;1.70;;
11839;SDS011;5979;50.800;4.904;2023-04-12T08:34:53;4.35;;;1.80;;
11839;SDS011;5979;50.800;4.904;2023-04-12T08:37:19;3.58;;;1.83;;
11839;SDS011;5979;50.800;4.904;2023-04-12T08:39:45;3.88;;;1.83;;
11839;SDS011;5979;50.800;4.904;2023-04-12T08:42:12;5.63;;;1.80;;
11839;SDS011;5979;50.800;4.904;2023-04-12T08:44:42;6.57;;;2.08;;
11839;SDS011;5979;50.800;4.904;2023-04-12T08:47:09;4.53;;;2.25;;
11839;SDS011;5979;50.800;4.904;2023-04-12T08:49:35;7.40;;;2.25;;
11839;SDS011;5979;50.800;4.904;2023-04-12T08:52:05;5.10;;;1.95;;
11839;SDS011;5979;50.800;4.904;2023-04-12T08:54:35;3.45;;;1.85;;
11839;SDS011;5979;50.800;4.904;2023-04-12T08:57:02;3.70;;;1.85;;
11839;SDS011;5979;50.800;4.904;2023-04-12T08:59:31;6.65;;;2.05;;
11839;SDS011;5979;50.800;4.904;2023-04-12T09:02:00;12.93;;;2.33;;
11839;SDS011;5979;50.800;4.904;2023-04-12T09:04:26;7.85;;;3.05;;
11839;SDS011;5979;50.800;4.904;2023-04-12T09:06:52;4.47;;;2.45;;
11839;SDS011;5979;50.800;4.904;2023-04-12T09:09:18;9.27;;;2.42;;
11839;SDS011;5979;50.800;4.904;2023-04-12T09:11:44;6.18;;;2.15;;
11839;SDS011;5979;50.800;4.904;2023-04-12T09:14:23;7.97;;;2.45;;
11839;SDS011;5979;50.800;4.904;2023-04-12T09:16:50;8.05;;;3.00;;
11839;SDS011;5979;50.800;4.904;2023-04-12T09:19:22;9.43;;;2.97;;
11839;SDS011;5979;50.800;4.904;2023-04-12T09:21:58;5.05;;;2.33;;
11839;SDS011;5979;50.800;4.904;2023-04-12T09:24:24;6.50;;;2.22;;
11839;SDS011;5979;50.800;4.904;2023-04-12T09:27:03;6.68;;;2.38;;
11839;SDS011;5979;50.800;4.904;2023-04-12T09:29:31;6.63;;;2.60;;
11839;SDS011;5979;50.800;4.904;2023-04-12T09:32:07;9.90;;;2.40;;
11839;SDS011;5979;50.800;4.904;2023-04-12T09:34:34;7.60;;;2.90;;
11839;SDS011;5979;50.800;4.904;2023-04-12T09:37:13;8.50;;;2.38;;
11839;SDS011;5979;50.800;4.904;2023-04-12T09:39:42;6.65;;;2.85;;
11839;SDS011;5979;50.800;4.904;2023-04-12T09:42:09;11.88;;;2.83;;
11839;SDS011;5979;50.800;4.904;2023-04-12T09:44:36;9.93;;;3.00;;
11839;SDS011;5979;50.800;4.904;2023-04-12T09:47:03;10.93;;;2.90;;
11839;SDS011;5979;50.800;4.904;2023-04-12T09:49:42;6.80;;;3.08;;
11839;SDS011;5979;50.800;4.904;2023-04-12T09:52:09;7.50;;;2.53;;
11839;SDS011;5979;50.800;4.904;2023-04-12T09:54:45;9.23;;;2.67;;
11839;SDS011;5979;50.800;4.904;2023-04-12T09:57:16;11.82;;;3.00;;
11839;SDS011;5979;50.800;4.904;2023-04-12T09:59:43;11.77;;;3.08;;
11839;SDS011;5979;50.800;4.904;2023-04-12T10:02:13;11.30;;;3.25;;
11839;SDS011;5979;50.800;4.904;2023-04-12T10:04:43;9.85;;;2.88;;
11839;SDS011;5979;50.800;4.904;2023-04-12T10:07:10;8.85;;;3.17;;
11839;SDS011;5979;50.800;4.904;2023-04-12T10:09:37;7.03;;;3.08;;
11839;SDS011;5979;50.800;4.904;2023-04-12T10:12:04;7.80;;;2.70;;
11839;SDS011;5979;50.800;4.904;2023-04-12T10:14:31;7.90;;;3.10;;
11839;SDS011;5979;50.800;4.904;2023-04-12T10:16:57;6.88;;;2.55;;
11839;SDS011;5979;50.800;4.904;2023-04-12T10:19:24;9.77;;;2.90;;
11839;SDS011;5979;50.800;4.904;2023-04-12T10:21:51;6.65;;;2.53;;
11839;SDS011;5979;50.800;4.904;2023-04-12T10:24:20;10.35;;;2.90;;
11839;SDS011;5979;50.800;4.904;2023-04-12T10:26:52;6.65;;;2.60;;
11839;SDS011;5979;50.800;4.904;2023-04-12T10:31:56;8.60;;;2.80;;
11839;SDS011;5979;50.800;4.904;2023-04-12T10:34:42;7.47;;;2.78;;
11839;SDS011;5979;50.800;4.904;2023-04-12T10:37:07;7.35;;;2.67;;
11839;SDS011;5979;50.800;4.904;2023-04-12T10:39:35;5.43;;;2.42;;
11839;SDS011;5979;50.800;4.904;2023-04-12T10:44:54;9.18;;;2.75;;
11839;SDS011;5979;50.800;4.904;2023-04-12T10:55:39;7.45;;;2.55;;
11839;SDS011;5979;50.800;4.904;2023-04-12T10:58:55;8.02;;;2.42;;
11839;SDS011;5979;50.800;4.904;2023-04-12T11:01:10;5.95;;;2.35;;
11839;SDS011;5979;50.800;4.904;2023-04-12T11:04:00;6.18;;;2.28;;
11839;SDS011;5979;50.800;4.904;2023-04-12T11:06:49;5.55;;;2.15;;
11839;SDS011;5979;50.800;4.904;2023-04-12T11:12:09;3.40;;;1.90;;
11839;SDS011;5979;50.800;4.904;2023-04-12T11:22:13;11.52;;;3.00;;
11839;SDS011;5979;50.800;4.904;2023-04-12T11:24:43;6.15;;;2.70;;
11839;SDS011;5979;50.800;4.904;2023-04-12T11:27:20;8.43;;;2.42;;
11839;SDS011;5979;50.800;4.904;2023-04-12T11:29:51;5.07;;;2.10;;
11839;SDS011;5979;50.800;4.904;2023-04-12T11:32:20;5.72;;;2.53;;
11839;SDS011;5979;50.800;4.904;2023-04-12T11:34:47;6.97;;;2.35;;
11839;SDS011;5979;50.800;4.904;2023-04-12T11:37:17;5.85;;;2.88;;
11839;SDS011;5979;50.800;4.904;2023-04-12T11:39:44;7.00;;;2.90;;
11839;SDS011;5979;50.800;4.904;2023-04-12T11:42:21;7.22;;;2.38;;
11839;SDS011;5979;50.800;4.904;2023-04-12T11:44:48;4.18;;;2.03;;
11839;SDS011;5979;50.800;4.904;2023-04-12T11:47:18;4.60;;;2.75;;
11839;SDS011;5979;50.800;4.904;2023-04-12T11:49:55;5.78;;;2.22;;
11839;SDS011;5979;50.800;4.904;2023-04-12T11:52:29;5.88;;;2.28;;
11839;SDS011;5979;50.800;4.904;2023-04-12T11:54:59;5.00;;;2.75;;
11839;SDS011;5979;50.800;4.904;2023-04-12T11:57:25;8.45;;;2.65;;
11839;SDS011;5979;50.800;4.904;2023-04-12T11:59:55;6.40;;;3.00;;
11839;SDS011;5979;50.800;4.904;2023-04-12T12:02:21;5.95;;;2.38;;
11839;SDS011;5979;50.800;4.904;2023-04-12T12:04:47;4.10;;;1.85;;
11839;SDS011;5979;50.800;4.904;2023-04-12T12:07:14;1.95;;;1.33;;
11839;SDS011;5979;50.800;4.904;2023-04-12T12:09:41;2.30;;;1.65;;
11839;SDS011;5979;50.800;4.904;2023-04-12T12:12:09;2.85;;;1.70;;
11839;SDS011;5979;50.800;4.904;2023-04-12T12:14:35;2.97;;;1.58;;
11839;SDS011;5979;50.800;4.904;2023-04-12T12:17:02;1.83;;;1.17;;
11839;SDS011;5979;50.800;4.904;2023-04-12T12:19:36;4.72;;;1.67;;
11839;SDS011;5979;50.800;4.904;2023-04-12T12:24:49;3.80;;;1.70;;
11839;SDS011;5979;50.800;4.904;2023-04-12T12:30:04;6.13;;;2.58;;
11839;SDS011;5979;50.800;4.904;2023-04-12T12:32:32;2.60;;;1.70;;
11839;SDS011;5979;50.800;4.904;2023-04-12T12:34:59;5.18;;;2.13;;
11839;SDS011;5979;50.800;4.904;2023-04-12T12:37:25;4.38;;;1.63;;
11839;SDS011;5979;50.800;4.904;2023-04-12T12:39:59;7.75;;;2.20;;
11839;SDS011;5979;50.800;4.904;2023-04-12T12:42:47;3.50;;;1.13;;
11839;SDS011;5979;50.800;4.904;2023-04-12T12:45:19;1.42;;;1.00;;
11839;SDS011;5979;50.800;4.904;2023-04-12T12:50:31;1.23;;;1.10;;
11839;SDS011;5979;50.800;4.904;2023-04-12T12:52:59;2.30;;;0.90;;
11839;SDS011;5979;50.800;4.904;2023-04-12T12:55:26;1.08;;;0.98;;
11839;SDS011;5979;50.800;4.904;2023-04-12T12:57:53;1.67;;;1.25;;
11839;SDS011;5979;50.800;4.904;2023-04-12T13:00:23;1.50;;;1.40;;
11839;SDS011;5979;50.800;4.904;2023-04-12T13:02:51;1.73;;;1.20;;
11839;SDS011;5979;50.800;4.904;2023-04-12T13:05:17;1.13;;;1.02;;
11839;SDS011;5979;50.800;4.904;2023-04-12T13:07:44;0.60;;;0.60;;
11839;SDS011;5979;50.800;4.904;2023-04-12T13:10:10;0.57;;;0.50;;
11839;SDS011;5979;50.800;4.904;2023-04-12T13:12:36;1.00;;;0.35;;
11839;SDS011;5979;50.800;4.904;2023-04-12T13:15:01;1.00;;;0.30;;
11839;SDS011;5979;50.800;4.904;2023-04-12T13:17:28;0.52;;;0.40;;
11839;SDS011;5979;50.800;4.904;2023-04-12T13:19:54;0.50;;;0.50;;
11839;SDS011;5979;50.800;4.904;2023-04-12T13:22:21;1.75;;;0.70;;
11839;SDS011;5979;50.800;4.904;2023-04-12T13:24:47;1.45;;;0.45;;
11839;SDS011;5979;50.800;4.904;2023-04-12T13:27:13;1.40;;;0.40;;
11839;SDS011;5979;50.800;4.904;2023-04-12T13:29:40;1.08;;;0.73;;
11839;SDS011;5979;50.800;4.904;2023-04-12T13:32:06;2.00;;;0.60;;
11839;SDS011;5979;50.800;4.904;2023-04-12T13:34:32;0.60;;;0.60;;
11839;SDS011;5979;50.800;4.904;2023-04-12T13:36:58;0.73;;;0.73;;
11839;SDS011;5979;50.800;4.904;2023-04-12T13:39:24;1.65;;;0.60;;
11839;SDS011;5979;50.800;4.904;2023-04-12T13:41:50;0.63;;;0.63;;
11839;SDS011;5979;50.800;4.904;2023-04-12T13:44:16;0.60;;;0.60;;
11839;SDS011;5979;50.800;4.904;2023-04-12T13:46:41;0.50;;;0.50;;
11839;SDS011;5979;50.800;4.904;2023-04-12T13:49:07;1.20;;;0.73;;
11839;SDS011;5979;50.800;4.904;2023-04-12T13:51:33;0.60;;;0.60;;
11839;SDS011;5979;50.800;4.904;2023-04-12T13:53:59;0.40;;;0.40;;
11839;SDS011;5979;50.800;4.904;2023-04-12T13:56:25;0.65;;;0.50;;
11839;SDS011;5979;50.800;4.904;2023-04-12T13:58:51;0.38;;;0.38;;
11839;SDS011;5979;50.800;4.904;2023-04-12T14:01:16;0.57;;;0.30;;
11839;SDS011;5979;50.800;4.904;2023-04-12T14:03:42;0.73;;;0.60;;
11839;SDS011;5979;50.800;4.904;2023-04-12T14:06:08;0.75;;;0.43;;
11839;SDS011;5979;50.800;4.904;2023-04-12T14:08:34;0.40;;;0.40;;
11839;SDS011;5979;50.800;4.904;2023-04-12T14:11:01;1.35;;;0.88;;
11839;SDS011;5979;50.800;4.904;2023-04-12T14:13:27;20.67;;;1.08;;
11839;SDS011;5979;50.800;4.904;2023-04-12T14:15:53;5.35;;;0.85;;
11839;SDS011;5979;50.800;4.904;2023-04-12T14:18:20;0.82;;;0.82;;
11839;SDS011;5979;50.800;4.904;2023-04-12T14:20:49;1.48;;;1.17;;
11839;SDS011;5979;50.800;4.904;2023-04-12T14:23:19;2.28;;;0.90;;
11839;SDS011;5979;50.800;4.904;2023-04-12T14:25:50;6.50;;;1.30;;
11839;SDS011;5979;50.800;4.904;2023-04-12T14:28:16;1.70;;;0.80;;
11839;SDS011;5979;50.800;4.904;2023-04-12T14:30:46;1.00;;;0.90;;
11839;SDS011;5979;50.800;4.904;2023-04-12T14:33:14;1.23;;;1.00;;
11839;SDS011;5979;50.800;4.904;2023-04-12T14:35:41;2.67;;;1.27;;
11839;SDS011;5979;50.800;4.904;2023-04-12T14:38:07;1.13;;;1.10;;
11839;SDS011;5979;50.800;4.904;2023-04-12T14:40:33;1.35;;;1.25;;
11839;SDS011;5979;50.800;4.904;2023-04-12T14:42:59;2.58;;;0.77;;
11839;SDS011;5979;50.800;4.904;2023-04-12T14:45:25;0.88;;;0.88;;
11839;SDS011;5979;50.800;4.904;2023-04-12T14:47:51;1.15;;;0.93;;
11839;SDS011;5979;50.800;4.904;2023-04-12T14:50:17;0.95;;;0.95;;
11839;SDS011;5979;50.800;4.904;2023-04-12T14:52:43;1.60;;;0.77;;
11839;SDS011;5979;50.800;4.904;2023-04-12T14:55:09;0.65;;;0.65;;
11839;SDS011;5979;50.800;4.904;2023-04-12T14:57:35;0.85;;;0.73;;
11839;SDS011;5979;50.800;4.904;2023-04-12T15:00:02;0.80;;;0.77;;
11839;SDS011;5979;50.800;4.904;2023-04-12T15:02:32;1.40;;;0.85;;
11839;SDS011;5979;50.800;4.904;2023-04-12T15:04:58;1.70;;;1.00;;
11839;SDS011;5979;50.800;4.904;2023-04-12T15:07:28;1.25;;;1.15;;
11839;SDS011;5979;50.800;4.904;2023-04-12T15:09:53;0.90;;;0.90;;
11839;SDS011;5979;50.800;4.904;2023-04-12T15:12:21;1.40;;;1.20;;
11839;SDS011;5979;50.800;4.904;2023-04-12T15:14:47;1.15;;;1.02;;
11839;SDS011;5979;50.800;4.904;2023-04-12T15:17:14;3.25;;;1.30;;
11839;SDS011;5979;50.800;4.904;2023-04-12T15:19:39;1.40;;;1.30;;
11839;SDS011;5979;50.800;4.904;2023-04-12T15:22:05;1.45;;;1.35;;
11839;SDS011;5979;50.800;4.904;2023-04-12T15:24:31;4.43;;;1.42;;
11839;SDS011;5979;50.800;4.904;2023-04-12T15:26:57;3.08;;;1.40;;
11839;SDS011;5979;50.800;4.904;2023-04-12T15:29:23;1.50;;;1.40;;
11839;SDS011;5979;50.800;4.904;2023-04-12T15:31:52;1.40;;;1.30;;
11839;SDS011;5979;50.800;4.904;2023-04-12T15:34:19;1.85;;;1.60;;
11839;SDS011;5979;50.800;4.904;2023-04-12T15:36:47;1.27;;;1.08;;
11839;SDS011;5979;50.800;4.904;2023-04-12T15:39:13;3.28;;;1.38;;
11839;SDS011;5979;50.800;4.904;2023-04-12T15:41:39;2.78;;;1.35;;
11839;SDS011;5979;50.800;4.904;2023-04-12T15:44:07;1.70;;;1.60;;
11839;SDS011;5979;50.800;4.904;2023-04-12T15:46:34;1.60;;;1.08;;
11839;SDS011;5979;50.800;4.904;2023-04-12T15:49:00;1.77;;;1.40;;
11839;SDS011;5979;50.800;4.904;2023-04-12T15:51:27;1.65;;;1.55;;
11839;SDS011;5979;50.800;4.904;2023-04-12T15:53:53;1.33;;;1.23;;